Time;durP1;ratioP1;P1;durP2;ratioP2;P2;SDS_P1;SDS_P2;PMS_P1;PMS_P2;Temp;Humidity;BMP_temperature;BMP_pressure;BME280_temperature;BME280_humidity;BME280_pressure;Samples;Min_cycle;Max_cycle;Signal;HPM_P1;HPM_P2
2022/05/27 00:01:31;;;;;;;4.50;1.50;;;15.70;83.20;;;;;;5018722;28;20085;-63
2022/05/27 00:03:59;;;;;;;3.88;1.48;;;15.60;83.70;;;;;;5021904;28;20739;-61
2022/05/27 00:06:26;;;;;;;3.65;1.20;;;15.50;83.80;;;;;;5016269;28;20109;-61
2022/05/27 00:08:53;;;;;;;3.33;1.30;;;15.40;83.90;;;;;;5017293;28;20661;-61
2022/05/27 00:11:19;;;;;;;3.28;1.25;;;15.30;84.40;;;;;;5015432;28;20022;-62
2022/05/27 00:13:45;;;;;;;2.05;1.20;;;15.30;84.80;;;;;;5014978;28;20100;-63
2022/05/27 00:16:11;;;;;;;3.85;1.27;;;15.20;85.00;;;;;;5019061;28;20397;-62
2022/05/27 00:18:37;;;;;;;2.03;1.23;;;15.10;85.40;;;;;;5015663;28;20026;-62
2022/05/27 00:21:04;;;;;;;2.85;1.42;;;15.00;85.70;;;;;;5017950;28;20029;-62
2022/05/27 00:23:30;;;;;;;3.17;1.45;;;15.00;86.40;;;;;;5017947;28;20065;-61
2022/05/27 00:25:56;;;;;;;2.03;1.15;;;15.00;86.30;;;;;;5015056;28;20057;-61
2022/05/27 00:28:22;;;;;;;2.25;1.30;;;14.90;86.60;;;;;;5016304;28;20053;-62
2022/05/27 00:30:48;;;;;;;2.67;1.20;;;14.90;87.70;;;;;;5016668;28;20093;-61
2022/05/27 00:33:13;;;;;;;2.55;1.30;;;14.80;87.50;;;;;;5016104;28;20117;-62
2022/05/27 00:35:39;;;;;;;3.35;1.30;;;14.70;88.00;;;;;;5016879;28;20049;-61
2022/05/27 00:38:06;;;;;;;2.30;1.20;;;14.70;87.80;;;;;;5021193;28;20029;-63
2022/05/27 00:41:00;;;;;;;3.83;1.63;;;14.70;88.80;;;;;;4998697;28;20041;-61
2022/05/27 00:43:26;;;;;;;3.47;1.63;;;14.60;87.70;;;;;;4999415;28;20096;-61
2022/05/27 00:46:05;;;;;;;3.78;1.75;;;14.50;88.80;;;;;;5015249;28;20014;-62
2022/05/27 00:48:36;;;;;;;2.80;1.30;;;14.40;89.20;;;;;;5018109;28;20038;-61
2022/05/27 00:51:04;;;;;;;2.17;1.20;;;14.40;89.70;;;;;;4996243;28;20536;-63
2022/05/27 00:53:35;;;;;;;2.38;1.40;;;14.30;90.20;;;;;;5015283;28;20042;-61
2022/05/27 00:56:02;;;;;;;4.95;1.60;;;14.20;89.90;;;;;;5015875;28;20514;-61
2022/05/27 00:58:32;;;;;;;3.25;1.20;;;14.20;90.10;;;;;;5015632;28;20021;-63
2022/05/27 01:00:59;;;;;;;2.97;1.50;;;14.10;90.10;;;;;;5016659;28;20411;-61
2022/05/27 01:03:27;;;;;;;2.00;1.25;;;14.00;90.70;;;;;;5014161;28;20046;-62
2022/05/27 01:05:53;;;;;;;3.55;1.50;;;14.00;90.30;;;;;;5016947;28;20161;-62
2022/05/27 01:08:22;;;;;;;3.78;1.80;;;14.00;90.80;;;;;;5017078;28;20030;-61
2022/05/27 01:11:16;;;;;;;3.03;1.50;;;13.90;91.40;;;;;;5016796;28;20083;-61
2022/05/27 01:14:00;;;;;;;5.25;1.85;;;13.90;91.80;;;;;;5018258;28;20033;-61
2022/05/27 01:16:42;;;;;;;4.63;1.70;;;13.90;92.20;;;;;;5022074;28;20038;-61
2022/05/27 01:22:31;;;;;;;5.50;2.38;;;13.80;92.30;;;;;;5021699;28;20539;-62
2022/05/27 01:25:24;;;;;;;2.58;1.60;;;13.80;92.60;;;;;;5019616;28;20148;-61
2022/05/27 01:28:02;;;;;;;4.72;1.80;;;13.70;93.00;;;;;;5019281;28;20029;-61
2022/05/27 01:30:33;;;;;;;3.80;1.73;;;13.70;93.60;;;;;;5020706;28;20034;-62
2022/05/27 01:33:34;;;;;;;4.35;1.73;;;13.60;93.80;;;;;;5015429;28;20022;-64
2022/05/27 01:36:15;;;;;;;3.78;1.58;;;13.60;93.90;;;;;;5010729;28;20057;-62
2022/05/27 01:38:45;;;;;;;3.90;1.80;;;13.60;94.60;;;;;;5017116;28;20044;-61
2022/05/27 01:41:49;;;;;;;3.10;1.60;;;13.50;95.00;;;;;;5001052;28;20030;-62
2022/05/27 01:44:43;;;;;;;3.83;1.75;;;13.50;95.70;;;;;;4996389;28;20413;-61
2022/05/27 01:47:17;;;;;;;6.55;1.85;;;13.50;96.20;;;;;;5016212;28;20129;-61
2022/05/27 01:49:48;;;;;;;2.40;1.73;;;13.50;96.50;;;;;;5005426;28;20045;-62
2022/05/27 01:52:42;;;;;;;4.57;2.30;;;13.60;97.00;;;;;;5003093;28;20038;-61
2022/05/27 01:55:15;;;;;;;2.67;1.60;;;13.60;97.20;;;;;;5015949;28;20041;-63
2022/05/27 01:57:56;;;;;;;2.50;1.48;;;13.70;97.50;;;;;;5010058;28;20030;-63
2022/05/27 02:00:26;;;;;;;4.25;1.58;;;13.70;97.70;;;;;;5021197;28;20524;-61
2022/05/27 02:03:00;;;;;;;4.15;1.75;;;13.70;98.00;;;;;;5020630;28;20440;-62
2022/05/27 02:05:33;;;;;;;2.72;1.80;;;13.70;98.50;;;;;;5016621;28;20036;-61
2022/05/27 02:08:07;;;;;;;3.97;1.60;;;13.70;98.80;;;;;;5017864;28;20025;-63
2022/05/27 02:10:53;;;;;;;6.53;2.53;;;13.70;99.60;;;;;;5019263;28;20382;-62
2022/05/27 02:13:25;;;;;;;5.22;2.08;;;13.60;99.90;;;;;;5020593;28;20026;-61
2022/05/27 02:15:53;;;;;;;2.38;1.50;;;13.60;99.90;;;;;;5020733;28;20033;-61
2022/05/27 02:18:25;;;;;;;3.88;1.60;;;13.60;99.90;;;;;;5017177;28;20040;-61
2022/05/27 02:21:14;;;;;;;4.47;1.83;;;13.60;99.90;;;;;;5020210;28;20370;-62
2022/05/27 02:24:10;;;;;;;2.97;1.92;;;13.50;99.90;;;;;;5004979;28;20731;-61
2022/05/27 02:26:44;;;;;;;6.10;1.70;;;13.50;99.90;;;;;;5006355;28;20036;-61
2022/05/27 02:29:18;;;;;;;3.25;2.05;;;13.40;99.90;;;;;;5016545;28;20629;-61
2022/05/27 02:31:49;;;;;;;5.57;2.17;;;13.30;99.90;;;;;;5020474;28;20429;-63
2022/05/27 02:37:14;;;;;;;3.40;1.87;;;13.20;99.90;;;;;;5023074;28;20056;-61
2022/05/27 02:39:40;;;;;;;5.43;2.58;;;13.10;99.90;;;;;;5019353;28;20042;-62
2022/05/27 02:42:44;;;;;;;3.60;1.63;;;13.10;99.90;;;;;;5018643;28;20041;-61
2022/05/27 02:45:22;;;;;;;4.07;1.92;;;13.10;99.90;;;;;;5015079;28;20055;-61
2022/05/27 02:48:13;;;;;;;2.90;1.90;;;13.10;99.90;;;;;;5016642;28;20376;-61
2022/05/27 02:50:57;;;;;;;4.30;2.17;;;13.10;99.90;;;;;;5017350;28;20120;-60
2022/05/27 02:53:28;;;;;;;2.67;1.88;;;13.10;99.90;;;;;;5000880;28;20053;-61
2022/05/27 02:56:24;;;;;;;2.47;1.65;;;13.10;99.90;;;;;;5019681;28;20512;-61
2022/05/27 02:58:50;;;;;;;2.92;2.28;;;13.20;99.90;;;;;;5015805;28;20034;-63
2022/05/27 03:01:16;;;;;;;3.28;1.50;;;13.20;99.90;;;;;;5016864;28;20034;-63
2022/05/27 03:03:43;;;;;;;3.42;1.92;;;13.20;99.90;;;;;;5016018;28;20165;-62
2022/05/27 03:06:26;;;;;;;4.80;1.63;;;13.20;99.90;;;;;;5015070;28;20021;-60
2022/05/27 03:09:14;;;;;;;6.15;2.00;;;13.10;99.90;;;;;;5017665;28;20033;-63
2022/05/27 03:11:48;;;;;;;5.63;2.30;;;13.10;99.90;;;;;;5018181;28;20515;-60
2022/05/27 03:14:28;;;;;;;5.97;2.00;;;13.00;99.90;;;;;;5017781;28;20540;-61
2022/05/27 03:17:09;;;;;;;3.33;1.92;;;12.90;99.90;;;;;;5018227;28;20026;-62
2022/05/27 03:19:47;;;;;;;4.07;1.88;;;12.90;99.90;;;;;;5018443;28;20389;-61
2022/05/27 03:22:50;;;;;;;8.15;2.17;;;12.90;99.90;;;;;;5020320;28;20042;-61
2022/05/27 03:25:57;;;;;;;4.57;1.88;;;12.80;99.90;;;;;;5011800;28;20037;-62
2022/05/27 03:28:28;;;;;;;3.17;1.63;;;12.80;99.90;;;;;;5014099;28;20636;-62
2022/05/27 03:31:15;;;;;;;4.43;1.73;;;12.90;99.90;;;;;;5003701;28;20057;-61
2022/05/27 03:33:57;;;;;;;4.00;1.63;;;12.90;99.90;;;;;;5017766;28;20030;-61
2022/05/27 03:36:52;;;;;;;2.92;1.48;;;12.90;99.90;;;;;;5018621;28;20046;-61
2022/05/27 03:39:32;;;;;;;3.85;1.70;;;13.00;99.90;;;;;;5016056;28;20033;-61
2022/05/27 03:42:06;;;;;;;4.85;2.20;;;13.00;99.90;;;;;;5017415;28;20026;-62
2022/05/27 03:44:32;;;;;;;4.50;1.60;;;13.10;99.90;;;;;;5015104;28;20057;-63
2022/05/27 03:46:59;;;;;;;5.82;1.80;;;13.20;99.90;;;;;;5015588;28;20022;-63
2022/05/27 03:49:25;;;;;;;5.80;2.28;;;13.20;99.90;;;;;;5020341;28;20030;-62
2022/05/27 03:51:57;;;;;;;2.85;2.10;;;13.30;99.90;;;;;;5015832;28;20546;-61
2022/05/27 03:54:23;;;;;;;6.80;1.85;;;13.40;99.90;;;;;;5020259;28;20124;-61
2022/05/27 03:56:49;;;;;;;5.63;2.50;;;13.50;99.90;;;;;;5017164;28;20124;-62
2022/05/27 03:59:16;;;;;;;4.88;1.80;;;13.60;99.90;;;;;;5018751;28;20108;-62
2022/05/27 04:01:47;;;;;;;3.88;1.80;;;13.70;99.90;;;;;;5019185;28;20081;-61
2022/05/27 04:04:16;;;;;;;3.67;1.60;;;13.80;99.90;;;;;;5014105;28;20030;-61
2022/05/27 04:06:42;;;;;;;4.85;1.70;;;13.90;99.90;;;;;;5020720;28;20026;-61
2022/05/27 04:09:08;;;;;;;9.00;1.95;;;14.00;99.90;;;;;;5016781;28;20097;-62
2022/05/27 04:11:35;;;;;;;2.65;1.65;;;14.10;99.90;;;;;;5012957;28;20419;-62
2022/05/27 04:14:01;;;;;;;3.00;1.50;;;14.20;99.90;;;;;;4998187;28;20116;-61
2022/05/27 04:16:26;;;;;;;4.30;2.00;;;14.30;99.90;;;;;;5015771;28;20033;-62
2022/05/27 04:18:52;;;;;;;4.97;1.92;;;14.40;99.90;;;;;;5019695;28;20702;-61
2022/05/27 04:21:18;;;;;;;5.95;1.92;;;14.40;99.90;;;;;;5016364;28;20441;-61
2022/05/27 04:23:44;;;;;;;3.33;1.60;;;14.50;99.90;;;;;;5017342;28;20108;-61
2022/05/27 04:26:10;;;;;;;4.18;1.60;;;14.50;99.90;;;;;;5014207;28;20042;-61
2022/05/27 04:28:35;;;;;;;2.67;1.55;;;14.50;99.90;;;;;;5002991;28;20045;-64
2022/05/27 04:31:02;;;;;;;4.25;1.50;;;14.60;99.90;;;;;;5020398;28;20018;-61
2022/05/27 04:33:28;;;;;;;1.95;1.52;;;14.70;99.90;;;;;;5017123;28;20034;-63
2022/05/27 04:35:59;;;;;;;3.35;1.45;;;14.80;99.90;;;;;;5016625;28;20026;-61
2022/05/27 04:38:25;;;;;;;4.87;1.60;;;15.00;99.90;;;;;;5016948;28;20516;-60
2022/05/27 04:40:50;;;;;;;2.45;1.30;;;15.10;99.90;;;;;;5018444;28;20323;-60
2022/05/27 04:43:16;;;;;;;4.18;1.50;;;15.20;99.90;;;;;;5016670;28;20531;-64
2022/05/27 04:45:43;;;;;;;6.63;1.55;;;15.30;99.90;;;;;;5011242;28;20429;-63
2022/05/27 04:48:09;;;;;;;4.18;1.60;;;15.40;99.90;;;;;;5018855;28;20485;-62
2022/05/27 04:50:35;;;;;;;4.00;1.58;;;15.40;99.90;;;;;;5023453;28;20029;-61
2022/05/27 04:53:02;;;;;;;4.07;1.80;;;15.50;99.90;;;;;;5016571;28;20026;-63
2022/05/27 04:55:30;;;;;;;3.85;1.45;;;15.50;99.90;;;;;;5020458;28;20067;-63
2022/05/27 04:57:56;;;;;;;3.85;1.42;;;15.50;99.90;;;;;;5023963;28;20045;-61
2022/05/27 05:00:36;;;;;;;2.80;1.42;;;15.50;99.90;;;;;;5019278;28;20053;-61
2022/05/27 05:03:02;;;;;;;8.88;1.55;;;15.60;99.90;;;;;;5019216;28;20025;-61
2022/05/27 05:05:30;;;;;;;3.53;1.60;;;15.60;99.90;;;;;;5020164;28;20049;-61
2022/05/27 05:07:59;;;;;;;4.47;1.40;;;15.60;99.90;;;;;;5013920;28;20134;-61
2022/05/27 05:10:25;;;;;;;3.83;1.52;;;15.60;99.90;;;;;;5021611;28;20025;-61
2022/05/27 05:12:51;;;;;;;1.58;1.20;;;15.70;99.90;;;;;;5021335;28;20018;-63
2022/05/27 05:15:19;;;;;;;4.25;1.85;;;15.70;99.90;;;;;;5021107;28;20807;-61
2022/05/27 05:17:44;;;;;;;3.97;1.50;;;15.70;99.90;;;;;;5017037;28;20045;-63
2022/05/27 05:20:13;;;;;;;2.58;1.25;;;15.80;99.90;;;;;;5017072;28;20480;-61
2022/05/27 05:22:39;;;;;;;4.80;1.58;;;15.80;99.90;;;;;;5019678;28;20073;-62
2022/05/27 05:25:06;;;;;;;3.22;1.30;;;15.90;99.90;;;;;;5019936;28;20025;-61
2022/05/27 05:27:33;;;;;;;5.18;1.38;;;15.90;99.90;;;;;;5019254;28;20030;-63
2022/05/27 05:29:59;;;;;;;5.95;1.50;;;16.00;99.90;;;;;;5017938;28;20495;-64
2022/05/27 05:32:25;;;;;;;4.47;1.52;;;16.00;99.90;;;;;;5018220;28;20038;-62
2022/05/27 05:34:50;;;;;;;2.60;1.58;;;16.10;99.90;;;;;;5021192;28;20029;-62
2022/05/27 05:37:16;;;;;;;4.07;1.42;;;16.10;99.90;;;;;;5003866;28;20064;-61
2022/05/27 05:39:42;;;;;;;3.55;1.40;;;16.10;99.90;;;;;;5018250;28;20021;-62
2022/05/27 05:42:09;;;;;;;4.20;1.52;;;16.10;99.90;;;;;;5017790;28;20070;-61
2022/05/27 05:44:35;;;;;;;3.28;1.55;;;16.10;99.90;;;;;;5020731;28;20097;-61
2022/05/27 05:47:02;;;;;;;5.05;1.63;;;16.10;99.90;;;;;;5017453;28;20025;-63
2022/05/27 05:49:29;;;;;;;3.13;1.40;;;16.10;99.90;;;;;;5008578;28;20136;-62
2022/05/27 05:51:57;;;;;;;5.03;1.40;;;16.10;99.90;;;;;;5019336;28;20018;-61
2022/05/27 05:54:24;;;;;;;5.18;1.85;;;16.00;99.90;;;;;;5019989;28;20026;-61
2022/05/27 05:56:50;;;;;;;2.67;1.40;;;16.00;99.90;;;;;;5020124;28;20025;-61
2022/05/27 05:59:17;;;;;;;4.53;1.50;;;16.00;99.90;;;;;;5013570;28;20105;-61
2022/05/27 06:01:43;;;;;;;3.13;1.83;;;16.00;99.90;;;;;;5000575;28;20029;-62
2022/05/27 06:04:10;;;;;;;2.88;1.58;;;16.10;99.90;;;;;;5018428;28;20839;-61
2022/05/27 06:06:36;;;;;;;3.05;1.60;;;16.10;99.90;;;;;;5019757;28;20698;-61
2022/05/27 06:09:03;;;;;;;3.97;1.70;;;16.20;99.90;;;;;;5019722;28;20026;-62
2022/05/27 06:11:29;;;;;;;5.05;1.33;;;16.30;99.90;;;;;;5015837;28;20021;-61
2022/05/27 06:13:54;;;;;;;2.60;1.35;;;16.30;99.90;;;;;;5020386;28;20516;-61
2022/05/27 06:16:20;;;;;;;4.78;1.73;;;16.30;99.90;;;;;;5016191;28;20049;-62
2022/05/27 06:18:47;;;;;;;3.40;1.50;;;16.30;99.90;;;;;;5016847;28;20477;-61
2022/05/27 06:21:13;;;;;;;2.92;1.40;;;16.30;99.90;;;;;;5015327;28;20509;-63
2022/05/27 06:23:39;;;;;;;2.90;1.40;;;16.30;99.90;;;;;;4997032;28;20397;-61
2022/05/27 06:26:08;;;;;;;3.35;1.65;;;16.30;99.90;;;;;;5017304;28;20080;-64
2022/05/27 06:36:47;;;;;;;2.65;1.40;;;17.00;99.90;;;;;;5018466;28;20161;-61
2022/05/27 06:39:13;;;;;;;2.17;1.40;;;17.10;99.90;;;;;;5018908;28;20113;-62
2022/05/27 06:41:39;;;;;;;3.97;1.50;;;17.20;99.90;;;;;;5003574;28;20459;-62
2022/05/27 06:44:05;;;;;;;3.83;1.40;;;17.30;99.70;;;;;;5001556;28;20037;-62
2022/05/27 06:46:32;;;;;;;8.23;1.73;;;17.40;99.20;;;;;;5017564;28;20033;-64
2022/05/27 06:48:58;;;;;;;2.85;1.35;;;17.40;99.00;;;;;;4997189;28;20030;-62
2022/05/27 06:51:24;;;;;;;5.63;1.88;;;17.30;99.10;;;;;;4997057;28;20048;-63
2022/05/27 06:53:52;;;;;;;1.88;1.40;;;17.30;98.70;;;;;;5017751;28;20534;-64
2022/05/27 06:56:18;;;;;;;2.55;1.50;;;17.20;98.80;;;;;;5014741;28;20036;-64
2022/05/27 06:58:44;;;;;;;2.50;1.48;;;17.20;99.10;;;;;;5013908;28;20033;-64
2022/05/27 07:01:11;;;;;;;2.72;1.40;;;17.10;98.80;;;;;;5018681;28;20018;-62
2022/05/27 07:03:37;;;;;;;2.15;1.45;;;17.10;98.80;;;;;;5016889;28;20157;-62
2022/05/27 07:06:13;;;;;;;4.10;1.23;;;17.10;98.80;;;;;;5014980;28;20037;-61
2022/05/27 07:08:39;;;;;;;2.53;1.42;;;17.10;99.00;;;;;;5013041;28;20481;-61
2022/05/27 07:11:05;;;;;;;3.28;1.27;;;17.10;99.20;;;;;;5015540;28;20524;-61
2022/05/27 07:13:31;;;;;;;2.40;1.30;;;17.10;99.30;;;;;;5021305;28;20029;-62
2022/05/27 07:15:57;;;;;;;3.25;1.45;;;17.20;98.90;;;;;;5010063;28;20041;-62
2022/05/27 07:18:23;;;;;;;5.05;1.42;;;17.20;98.80;;;;;;5015491;28;20071;-62
2022/05/27 07:20:49;;;;;;;3.75;1.48;;;17.30;98.40;;;;;;5014850;28;20022;-62
2022/05/27 07:23:15;;;;;;;2.72;1.42;;;17.30;98.20;;;;;;5017908;28;20675;-63
2022/05/27 07:25:41;;;;;;;4.53;1.70;;;17.30;98.40;;;;;;5013082;28;20029;-63
2022/05/27 07:28:08;;;;;;;4.22;1.33;;;17.20;98.20;;;;;;5022701;28;20088;-63
2022/05/27 07:30:35;;;;;;;3.85;1.70;;;17.20;98.40;;;;;;5018073;28;20075;-62
2022/05/27 07:33:01;;;;;;;4.95;1.67;;;17.10;98.50;;;;;;5017069;28;20029;-62
2022/05/27 07:35:26;;;;;;;4.50;1.73;;;17.10;98.60;;;;;;5018182;28;20025;-63
2022/05/27 07:37:52;;;;;;;5.47;1.77;;;17.00;98.60;;;;;;5012603;28;20034;-62
2022/05/27 07:40:18;;;;;;;2.25;1.50;;;17.00;98.90;;;;;;5019469;28;20048;-63
2022/05/27 07:42:44;;;;;;;3.88;1.83;;;17.00;98.90;;;;;;5015571;28;20388;-64
2022/05/27 07:45:11;;;;;;;2.63;1.60;;;16.90;99.10;;;;;;5015663;28;20112;-61
2022/05/27 07:47:36;;;;;;;1.85;1.48;;;17.00;99.20;;;;;;5014359;28;20112;-62
2022/05/27 07:50:03;;;;;;;2.28;1.50;;;17.00;99.80;;;;;;5014959;28;20132;-64
2022/05/27 07:52:30;;;;;;;3.97;1.70;;;17.00;99.50;;;;;;5015983;28;20033;-62
2022/05/27 07:54:55;;;;;;;2.25;1.70;;;17.00;99.30;;;;;;5017025;28;20061;-61
2022/05/27 07:57:25;;;;;;;4.13;1.85;;;17.00;99.40;;;;;;5017148;28;20053;-62
2022/05/27 08:00:04;;;;;;;5.93;1.58;;;17.10;99.40;;;;;;5013835;28;20052;-63
2022/05/27 08:02:30;;;;;;;2.60;1.70;;;17.10;99.40;;;;;;5006995;28;20037;-64
2022/05/27 08:04:57;;;;;;;2.75;1.80;;;17.20;99.50;;;;;;5015114;28;20105;-62
2022/05/27 08:07:23;;;;;;;3.25;1.88;;;17.20;99.20;;;;;;5017353;28;20029;-63
2022/05/27 08:09:49;;;;;;;5.78;1.60;;;17.20;99.00;;;;;;5002976;28;20141;-62
2022/05/27 08:12:15;;;;;;;5.55;1.90;;;17.20;99.00;;;;;;5014563;28;20523;-62
2022/05/27 08:14:41;;;;;;;3.88;2.22;;;17.20;99.00;;;;;;5016741;28;20025;-63
2022/05/27 08:17:06;;;;;;;2.70;1.83;;;17.20;98.90;;;;;;5017429;28;20519;-61
2022/05/27 08:19:32;;;;;;;2.35;1.65;;;17.20;99.20;;;;;;5017460;28;20116;-62
2022/05/27 08:21:58;;;;;;;2.70;1.35;;;17.30;99.40;;;;;;5022047;28;20034;-63
2022/05/27 08:24:24;;;;;;;2.60;1.48;;;17.20;99.30;;;;;;5008786;28;20040;-63
2022/05/27 08:26:50;;;;;;;3.90;2.03;;;17.30;99.30;;;;;;5020789;28;20459;-62
2022/05/27 08:29:16;;;;;;;4.88;1.80;;;17.20;99.10;;;;;;5020184;28;20541;-62
2022/05/27 08:31:42;;;;;;;2.63;1.67;;;17.20;99.20;;;;;;5026433;28;20033;-63
2022/05/27 08:39:42;;;;;;;4.60;1.95;;;17.20;99.30;;;;;;5017404;28;20566;-62
2022/05/27 08:42:29;;;;;;;2.33;1.80;;;17.20;99.80;;;;;;5019426;28;20459;-62
2022/05/27 08:45:15;;;;;;;3.75;1.77;;;17.10;99.50;;;;;;5021085;28;20073;-62
2022/05/27 08:47:52;;;;;;;3.30;1.48;;;17.00;99.90;;;;;;5012891;28;20037;-62
2022/05/27 08:50:23;;;;;;;4.07;1.70;;;17.00;99.70;;;;;;5006691;28;20037;-62
2022/05/27 08:52:57;;;;;;;3.95;1.83;;;17.00;99.90;;;;;;5018881;28;20093;-62
2022/05/27 09:01:26;;;;;;;4.75;2.20;;;17.00;99.80;;;;;;5020481;28;21044;-61
2022/05/27 09:03:58;;;;;;;3.55;2.20;;;16.90;99.90;;;;;;5018308;28;20046;-63
2022/05/27 09:07:06;;;;;;;5.70;2.25;;;16.90;99.90;;;;;;5022390;28;20029;-62
2022/05/27 09:09:32;;;;;;;3.38;1.95;;;16.90;99.90;;;;;;5004899;28;20705;-62
2022/05/27 09:11:57;;;;;;;6.07;2.30;;;16.90;99.90;;;;;;5019543;28;20187;-62
2022/05/27 09:14:25;;;;;;;4.63;2.70;;;16.90;99.90;;;;;;5021695;28;20037;-62
2022/05/27 09:16:59;;;;;;;2.95;1.80;;;17.00;99.90;;;;;;5020488;28;20379;-62
2022/05/27 09:19:48;;;;;;;3.58;2.60;;;17.00;99.90;;;;;;5014650;28;21009;-62
2022/05/27 09:22:31;;;;;;;3.22;2.20;;;17.10;99.90;;;;;;5021161;28;20047;-62
2022/05/27 09:25:28;;;;;;;7.68;2.50;;;17.20;99.90;;;;;;5020803;28;20481;-62
2022/05/27 09:28:31;;;;;;;3.03;1.80;;;17.20;99.90;;;;;;5015755;28;20117;-62
2022/05/27 09:31:00;;;;;;;4.60;2.10;;;17.20;99.90;;;;;;5016757;28;20022;-62
2022/05/27 09:33:27;;;;;;;3.40;2.03;;;17.30;99.90;;;;;;5022926;28;20033;-62
2022/05/27 09:36:08;;;;;;;3.47;2.42;;;17.40;99.90;;;;;;5017652;28;20038;-64
2022/05/27 09:38:37;;;;;;;3.88;2.05;;;17.40;99.90;;;;;;5019952;28;20120;-62
2022/05/27 09:41:23;;;;;;;4.70;2.65;;;17.50;99.90;;;;;;5016512;28;20030;-61
2022/05/27 09:43:56;;;;;;;5.70;2.85;;;17.60;99.90;;;;;;5016163;28;20037;-62
2022/05/27 09:46:27;;;;;;;2.28;1.92;;;17.70;99.90;;;;;;5021446;28;20037;-62
2022/05/27 09:48:56;;;;;;;4.03;2.25;;;17.90;99.90;;;;;;5019013;28;20034;-62
2022/05/27 09:51:24;;;;;;;3.95;2.75;;;18.20;99.90;;;;;;5022789;28;21549;-61
2022/05/27 09:53:53;;;;;;;2.38;1.90;;;18.60;99.90;;;;;;5021827;28;20025;-62
2022/05/27 09:56:41;;;;;;;4.25;1.85;;;19.00;98.90;;;;;;5015856;28;20083;-62
2022/05/27 09:59:36;;;;;;;5.97;2.67;;;19.40;97.30;;;;;;5018831;28;20030;-62
2022/05/27 10:02:22;;;;;;;2.28;1.70;;;19.70;96.30;;;;;;5023137;28;20019;-65
2022/05/27 10:05:01;;;;;;;4.57;2.00;;;19.80;95.30;;;;;;5019308;28;20033;-62
2022/05/27 10:07:42;;;;;;;3.08;2.25;;;19.80;95.50;;;;;;5019719;28;20040;-62
2022/05/27 10:10:35;;;;;;;;;;;19.90;95.30;;;;;;5017826;28;20037;-64
2022/05/27 10:13:13;;;;;;;2.63;2.03;;;20.00;94.70;;;;;;4988905;28;19909;-62
2022/05/27 10:15:39;;;;;;;4.22;2.10;;;20.10;93.90;;;;;;5016609;28;20624;-64
2022/05/27 10:18:16;;;;;;;2.42;1.70;;;20.10;94.10;;;;;;5018629;28;20113;-62
2022/05/27 10:20:46;;;;;;;3.08;1.90;;;20.00;93.70;;;;;;5015294;28;20034;-62
2022/05/27 10:23:22;;;;;;;3.00;1.63;;;20.00;93.80;;;;;;5023280;28;20112;-63
2022/05/27 10:25:48;;;;;;;2.38;1.85;;;20.00;93.40;;;;;;5021867;28;21063;-62
2022/05/27 10:28:27;;;;;;;2.88;1.58;;;20.00;93.10;;;;;;5018221;28;20013;-63
2022/05/27 10:31:00;;;;;;;2.75;1.50;;;20.10;93.60;;;;;;5018714;28;20030;-62
2022/05/27 10:33:49;;;;;;;3.13;1.50;;;19.90;92.60;;;;;;5017641;28;20509;-63
2022/05/27 10:36:31;;;;;;;3.70;1.73;;;19.70;92.70;;;;;;5017948;28;20092;-62
2022/05/27 10:39:03;;;;;;;4.65;1.80;;;19.60;93.40;;;;;;5007158;28;20057;-63
2022/05/27 10:41:31;;;;;;;2.67;1.63;;;19.60;94.40;;;;;;5018191;28;20042;-62
2022/05/27 10:44:18;;;;;;;2.53;1.60;;;19.80;93.80;;;;;;5018435;28;20519;-62
2022/05/27 10:46:57;;;;;;;2.95;1.67;;;20.10;93.70;;;;;;5019970;28;20058;-64
2022/05/27 10:49:43;;;;;;;1.83;1.35;;;20.30;92.30;;;;;;5018809;28;20072;-62
2022/05/27 10:52:40;;;;;;;3.63;1.92;;;20.20;91.60;;;;;;5000345;28;20037;-64
2022/05/27 10:55:28;;;;;;;2.72;1.77;;;20.30;91.70;;;;;;4999455;28;20515;-62
2022/05/27 11:04:45;;;;;;;2.83;1.35;;;20.50;90.90;;;;;;5016891;28;20040;-62
2022/05/27 11:07:38;;;;;;;1.88;1.17;;;21.00;91.10;;;;;;5019186;28;20393;-62
2022/05/27 11:10:27;;;;;;;2.28;1.80;;;22.00;89.90;;;;;;5020517;28;20045;-63
2022/05/27 11:16:26;;;;;;;3.00;1.40;;;23.40;80.40;;;;;;5019468;28;20483;-64
2022/05/27 11:19:14;;;;;;;2.60;1.20;;;23.90;77.90;;;;;;5016891;28;20056;-63
2022/05/27 11:21:59;;;;;;;1.83;1.30;;;24.10;75.90;;;;;;5018855;28;20045;-64
2022/05/27 11:25:02;;;;;;;2.70;1.30;;;24.50;73.60;;;;;;5017258;28;20036;-64
2022/05/27 11:27:47;;;;;;;1.83;1.40;;;24.80;73.60;;;;;;5008811;28;20510;-65
2022/05/27 11:30:27;;;;;;;5.28;1.10;;;25.40;71.00;;;;;;5020672;28;20429;-63
2022/05/27 11:33:04;;;;;;;;;;;25.60;68.20;;;;;;5014782;28;20022;-63
2022/05/27 11:35:38;;;;;;;1.80;1.08;;;25.80;66.90;;;;;;5018700;28;19917;-62
2022/05/27 11:38:07;;;;;;;5.68;1.25;;;25.50;66.50;;;;;;5018323;28;20030;-65
2022/05/27 11:40:39;;;;;;;1.33;1.00;;;25.10;66.90;;;;;;4998612;28;20061;-63
2022/05/27 11:43:17;;;;;;;1.30;1.10;;;24.40;68.40;;;;;;5018811;28;20049;-62
2022/05/27 11:45:52;;;;;;;1.98;1.10;;;23.60;73.90;;;;;;5016925;28;20502;-62
2022/05/27 11:48:34;;;;;;;1.10;1.00;;;23.10;74.70;;;;;;5018342;28;20117;-62
2022/05/27 11:51:18;;;;;;;1.73;1.05;;;22.70;74.20;;;;;;5021025;28;20022;-62
2022/05/27 11:53:50;;;;;;;2.13;1.15;;;22.30;75.80;;;;;;5015144;28;20755;-64
2022/05/27 11:56:26;;;;;;;1.50;1.10;;;21.90;76.80;;;;;;5017870;28;20034;-62
2022/05/27 11:59:05;;;;;;;1.80;1.23;;;21.60;78.90;;;;;;5018416;28;20040;-62
2022/05/27 12:01:38;;;;;;;1.80;1.13;;;21.30;81.30;;;;;;5007471;28;20282;-62
2022/05/27 12:04:30;;;;;;;3.45;1.30;;;21.20;85.20;;;;;;5017682;28;20025;-63
2022/05/27 12:07:34;;;;;;;2.20;1.50;;;21.40;83.00;;;;;;5015819;28;20077;-62
2022/05/27 12:10:21;;;;;;;2.80;1.10;;;21.50;84.10;;;;;;5015130;28;20088;-65
2022/05/27 12:13:07;;;;;;;1.50;1.33;;;21.50;86.20;;;;;;5011464;28;20083;-63
2022/05/27 12:15:52;;;;;;;1.40;1.30;;;21.20;88.70;;;;;;5020073;28;20025;-63
2022/05/27 12:18:32;;;;;;;3.83;1.20;;;21.10;91.60;;;;;;5016808;28;20716;-61
2022/05/27 12:20:59;;;;;;;1.30;1.20;;;21.20;91.60;;;;;;4997064;28;20037;-62
2022/05/27 12:23:27;;;;;;;1.65;1.23;;;21.30;91.10;;;;;;5016858;28;20034;-62
2022/05/27 12:25:58;;;;;;;1.73;1.25;;;21.40;91.10;;;;;;5014333;28;20037;-62
2022/05/27 12:28:30;;;;;;;1.87;1.30;;;21.30;90.60;;;;;;5020911;28;20024;-62
2022/05/27 12:30:59;;;;;;;1.35;1.15;;;21.30;90.70;;;;;;4991260;28;20043;-62
2022/05/27 12:33:27;;;;;;;1.95;1.52;;;21.30;90.40;;;;;;5018888;28;20040;-62
2022/05/27 12:35:57;;;;;;;1.30;1.20;;;21.30;91.20;;;;;;5016778;28;20489;-62
2022/05/27 12:38:24;;;;;;;1.50;1.38;;;21.40;91.80;;;;;;5017927;28;20038;-61
2022/05/27 12:40:51;;;;;;;1.77;1.60;;;21.80;92.20;;;;;;5013854;28;20165;-62
2022/05/27 12:43:34;;;;;;;2.08;1.30;;;22.10;90.20;;;;;;5017359;28;20026;-62
2022/05/27 12:46:02;;;;;;;1.60;1.50;;;22.40;86.50;;;;;;5015510;28;20104;-64
2022/05/27 12:48:40;;;;;;;1.50;1.40;;;22.80;85.10;;;;;;5015280;28;20113;-62
2022/05/27 12:51:05;;;;;;;1.77;1.30;;;22.70;84.40;;;;;;5015778;28;20119;-63
2022/05/27 12:53:51;;;;;;;2.50;1.30;;;22.70;83.20;;;;;;5015162;28;20441;-62
2022/05/27 13:02:18;;;;;;;0.90;0.30;;;21.70;85.60;;;;;;5013463;28;20153;-64
2022/05/27 13:04:55;;;;;;;2.28;0.50;;;19.90;88.70;;;;;;5017825;28;20037;-62
2022/05/27 13:07:33;;;;;;;1.58;0.50;;;18.80;93.40;;;;;;5004432;28;20018;-62
2022/05/27 13:10:17;;;;;;;2.05;0.50;;;17.60;95.70;;;;;;5024215;28;20042;-62
2022/05/27 13:12:46;;;;;;;1.35;0.50;;;16.70;99.80;;;;;;5017235;28;20126;-61
2022/05/27 13:15:15;;;;;;;0.82;0.47;;;16.20;99.90;;;;;;5020657;28;20388;-61
2022/05/27 13:17:49;;;;;;;0.50;0.43;;;15.80;99.90;;;;;;5007661;28;20026;-63
2022/05/27 13:20:21;;;;;;;1.75;0.50;;;15.60;99.90;;;;;;5023217;28;20425;-62
2022/05/27 13:22:58;;;;;;;0.98;0.63;;;15.50;99.90;;;;;;5020322;28;20362;-62
2022/05/27 13:25:32;;;;;;;2.35;0.60;;;15.40;99.90;;;;;;5017496;28;20026;-62
2022/05/27 13:28:04;;;;;;;1.02;0.80;;;15.50;99.90;;;;;;4987921;28;20072;-62
2022/05/27 13:30:50;;;;;;;;;;;15.50;99.90;;;;;;5019753;28;20471;-62
2022/05/27 13:33:23;;;;;;;1.38;0.80;;;15.40;99.90;;;;;;5010010;28;19913;-62
2022/05/27 13:35:50;;;;;;;2.17;0.68;;;15.50;99.90;;;;;;5018025;28;20029;-62
2022/05/27 13:38:23;;;;;;;2.22;0.80;;;15.60;99.90;;;;;;5019822;28;20026;-62
2022/05/27 13:40:49;;;;;;;1.30;0.80;;;15.60;99.90;;;;;;5018997;28;20053;-61
2022/05/27 13:43:20;;;;;;;2.85;0.98;;;15.90;99.90;;;;;;5023778;28;20049;-62
2022/05/27 13:45:47;;;;;;;2.22;0.85;;;16.20;99.90;;;;;;5021886;28;20196;-62
2022/05/27 13:48:50;;;;;;;2.65;0.80;;;16.40;99.90;;;;;;5022707;28;20045;-61
2022/05/27 13:51:21;;;;;;;2.38;0.95;;;16.70;99.90;;;;;;4993212;28;20434;-61
2022/05/27 13:53:48;;;;;;;1.00;0.80;;;17.10;99.90;;;;;;5021260;28;20029;-62
2022/05/27 13:56:18;;;;;;;1.80;0.90;;;17.40;99.90;;;;;;5021053;28;20104;-62
2022/05/27 13:59:00;;;;;;;1.02;1.02;;;17.40;99.90;;;;;;5017933;28;20033;-61
2022/05/27 14:01:35;;;;;;;1.92;0.90;;;17.70;99.90;;;;;;5023592;28;20025;-62